Time;durP1;ratioP1;P1;durP2;ratioP2;P2;SDS_P1;SDS_P2;PMS_P1;PMS_P2;Temp;Humidity;BMP_temperature;BMP_pressure;BME280_temperature;BME280_humidity;BME280_pressure;Samples;Min_cycle;Max_cycle;Signal;HPM_P1;HPM_P2
2023/10/12 00:02:09;;;;;;;10.30;3.67;;;19.20;99.90;;;;;;7294209;32;20177;-55
2023/10/12 00:06:13;;;;;;;13.80;3.87;;;19.10;99.90;;;;;;7292696;32;20099;-55
2023/10/12 00:14:17;;;;;;;9.10;3.33;;;19.10;99.90;;;;;;7296117;32;20175;-55
2023/10/12 00:18:19;;;;;;;9.98;3.45;;;19.10;99.90;;;;;;7294466;32;20421;-55
2023/10/12 00:22:21;;;;;;;10.82;3.47;;;19.00;99.90;;;;;;7292534;32;20644;-54
2023/10/12 00:26:23;;;;;;;9.30;3.50;;;19.10;99.90;;;;;;7288985;32;20104;-55
2023/10/12 00:30:25;;;;;;;18.30;3.95;;;19.10;99.90;;;;;;7294163;32;20131;-55
2023/10/12 00:34:27;;;;;;;11.55;4.07;;;18.90;99.90;;;;;;7297474;32;20234;-55
2023/10/12 00:38:30;;;;;;;12.23;4.12;;;18.80;99.90;;;;;;7299939;32;20493;-54
2023/10/12 00:42:36;;;;;;;12.88;4.47;;;18.60;99.90;;;;;;7302955;32;20111;-55
2023/10/12 00:46:40;;;;;;;10.30;3.83;;;18.60;99.90;;;;;;7298148;32;20466;-54
2023/10/12 00:50:48;;;;;;;9.75;4.40;;;18.60;99.90;;;;;;7301440;32;20100;-55
2023/10/12 00:54:56;;;;;;;12.68;3.97;;;18.50;99.90;;;;;;7300777;32;20214;-56
2023/10/12 00:58:58;;;;;;;10.30;4.15;;;18.40;99.90;;;;;;7299100;32;20479;-56
2023/10/12 01:07:38;;;;;;;;;;;18.30;99.90;;;;;;7289780;32;20180;-55
2023/10/12 01:11:43;;;;;;;8.45;3.42;;;18.20;99.90;;;;;;7296843;32;20369;-55
2023/10/12 01:15:47;;;;;;;9.40;3.87;;;18.10;99.90;;;;;;7296698;32;20135;-55
2023/10/12 01:19:51;;;;;;;12.32;3.87;;;18.20;99.90;;;;;;7296962;32;20220;-55
2023/10/12 01:23:53;;;;;;;12.37;3.92;;;18.20;99.90;;;;;;7297764;32;20133;-55
2023/10/12 01:27:55;;;;;;;13.18;3.80;;;18.10;99.90;;;;;;7301325;32;20296;-55
2023/10/12 01:36:14;;;;;;;11.88;4.25;;;18.00;99.90;;;;;;7288836;32;20116;-56
2023/10/12 01:40:20;;;;;;;7.47;3.78;;;18.00;99.90;;;;;;7301599;32;20108;-55
2023/10/12 01:44:23;;;;;;;8.33;3.63;;;17.90;99.90;;;;;;7286930;32;20939;-55
2023/10/12 01:48:29;;;;;;;7.60;3.90;;;17.70;99.90;;;;;;7298122;32;20615;-55
2023/10/12 01:52:31;;;;;;;9.77;4.22;;;17.70;99.90;;;;;;7293887;32;20494;-56
2023/10/12 01:56:33;;;;;;;13.38;4.18;;;17.60;99.90;;;;;;7296780;32;20115;-55
2023/10/12 02:00:39;;;;;;;8.95;4.32;;;17.50;99.90;;;;;;7297034;32;20201;-55
2023/10/12 02:04:43;;;;;;;9.13;4.28;;;17.50;99.90;;;;;;7295284;32;20171;-55
2023/10/12 02:12:47;;;;;;;7.53;4.43;;;17.30;99.90;;;;;;7287340;32;20135;-55
2023/10/12 02:16:55;;;;;;;8.70;4.70;;;17.20;99.90;;;;;;7293151;32;20111;-55
2023/10/12 02:25:26;;;;;;;13.27;5.50;;;16.80;99.90;;;;;;7296527;32;20476;-55
2023/10/12 02:29:35;;;;;;;14.73;5.78;;;16.60;99.90;;;;;;7298355;32;20173;-55
2023/10/12 02:33:38;;;;;;;9.73;5.85;;;16.50;99.90;;;;;;7293158;32;20157;-55
2023/10/12 02:37:42;;;;;;;10.50;5.60;;;16.30;99.90;;;;;;7298745;32;20120;-55
2023/10/12 02:42:10;;;;;;;14.13;6.37;;;16.20;99.90;;;;;;7295296;32;20409;-55
2023/10/12 02:46:06;;;;;;;10.70;6.00;;;16.10;99.90;;;;;;7296477;32;20407;-55
2023/10/12 02:54:15;;;;;;;10.65;6.40;;;16.00;99.90;;;;;;7297292;32;20152;-57
2023/10/12 02:58:19;;;;;;;12.80;6.53;;;16.00;99.90;;;;;;7299167;32;20237;-55
2023/10/12 03:02:21;;;;;;;14.43;7.00;;;15.90;99.90;;;;;;7297337;32;20206;-55
2023/10/12 03:06:23;;;;;;;16.42;7.05;;;15.90;99.90;;;;;;7294099;32;20259;-55
2023/10/12 03:10:26;;;;;;;11.98;7.35;;;15.80;99.90;;;;;;7293325;32;20308;-55
2023/10/12 03:14:28;;;;;;;11.15;6.57;;;15.70;99.90;;;;;;7296500;32;20108;-55
2023/10/12 03:18:30;;;;;;;10.88;7.35;;;15.70;99.90;;;;;;7291862;32;20377;-56
2023/10/12 03:22:32;;;;;;;15.23;9.27;;;15.70;99.90;;;;;;7296538;32;20536;-55
2023/10/12 03:26:34;;;;;;;17.92;8.45;;;15.70;99.90;;;;;;7285422;32;20111;-55
2023/10/12 03:30:43;;;;;;;17.42;8.30;;;15.60;99.90;;;;;;7291828;32;20203;-55
2023/10/12 03:38:58;;;;;;;15.02;8.73;;;15.50;99.90;;;;;;7294195;32;20127;-55
2023/10/12 03:43:08;;;;;;;15.68;8.75;;;15.40;99.90;;;;;;7291781;32;20330;-54
2023/10/12 03:47:15;;;;;;;11.70;8.55;;;15.50;99.90;;;;;;7303378;32;20194;-55
2023/10/12 03:51:25;;;;;;;14.90;8.48;;;15.50;99.90;;;;;;7297586;32;20773;-55
2023/10/12 03:55:27;;;;;;;12.80;8.25;;;15.50;99.90;;;;;;7297835;32;20108;-55
2023/10/12 04:12:49;;;;;;;16.62;8.23;;;15.30;99.90;;;;;;7294410;32;20215;-56
2023/10/12 04:17:06;;;;;;;16.00;8.80;;;15.30;99.90;;;;;;7300610;32;20180;-56
2023/10/12 04:21:22;;;;;;;14.82;8.32;;;15.30;99.90;;;;;;7291511;32;20218;-56
2023/10/12 04:29:30;;;;;;;14.85;8.30;;;15.20;99.90;;;;;;7302208;32;20120;-57
2023/10/12 04:33:55;;;;;;;15.90;9.02;;;15.20;99.90;;;;;;7293995;32;20628;-55
2023/10/12 04:38:08;;;;;;;14.63;8.55;;;15.20;99.90;;;;;;7303438;32;20234;-56
2023/10/12 04:42:20;;;;;;;14.73;7.90;;;15.20;99.90;;;;;;7299354;32;20284;-56
2023/10/12 04:50:42;;;;;;;13.75;7.82;;;15.00;99.90;;;;;;7300087;32;20542;-56
2023/10/12 04:59:50;;;;;;;16.08;9.20;;;15.10;99.90;;;;;;7295635;32;20212;-56
2023/10/12 05:03:34;;;;;;;16.60;9.45;;;15.10;99.90;;;;;;7278389;32;20254;-56
2023/10/12 05:07:53;;;;;;;17.75;8.55;;;15.10;99.90;;;;;;7296866;32;20127;-55
2023/10/12 05:11:55;;;;;;;13.23;8.90;;;15.10;99.90;;;;;;7298048;32;20161;-55
2023/10/12 05:16:06;;;;;;;17.80;9.52;;;15.10;99.90;;;;;;7294111;32;20112;-54
2023/10/12 05:20:09;;;;;;;15.50;9.35;;;15.00;99.90;;;;;;7299624;32;20108;-56
2023/10/12 05:24:11;;;;;;;14.30;8.82;;;15.00;99.90;;;;;;7295688;32;20203;-57
2023/10/12 05:28:14;;;;;;;12.85;8.43;;;15.00;99.90;;;;;;7297771;32;20105;-57
2023/10/12 05:32:22;;;;;;;15.27;8.82;;;15.00;99.90;;;;;;7291346;32;20143;-56
2023/10/12 05:36:25;;;;;;;15.65;9.63;;;15.00;99.90;;;;;;7296967;32;20116;-56
2023/10/12 05:40:35;;;;;;;16.25;9.32;;;14.90;99.90;;;;;;7293560;32;20278;-55
2023/10/12 05:44:42;;;;;;;13.68;8.68;;;14.90;99.90;;;;;;7294449;32;20134;-55
2023/10/12 05:48:52;;;;;;;15.98;9.15;;;14.90;99.90;;;;;;7295042;32;20494;-56
2023/10/12 05:52:59;;;;;;;12.52;8.93;;;14.90;99.90;;;;;;7296380;32;20154;-58
2023/10/12 05:57:07;;;;;;;;;;;14.90;99.90;;;;;;7286504;32;20123;-57
2023/10/12 06:01:09;;;;;;;14.40;9.43;;;14.90;99.90;;;;;;7295279;32;20120;-57
2023/10/12 06:05:17;;;;;;;15.70;9.88;;;14.90;99.90;;;;;;7294456;32;20122;-57
2023/10/12 06:09:23;;;;;;;15.70;9.73;;;14.90;99.90;;;;;;7298036;32;20262;-57
2023/10/12 06:13:40;;;;;;;16.85;9.30;;;15.00;99.90;;;;;;7296575;32;20108;-56
2023/10/12 06:17:49;;;;;;;15.98;10.40;;;14.90;99.90;;;;;;7295937;32;20167;-57
2023/10/12 06:21:51;;;;;;;22.02;9.82;;;14.90;99.90;;;;;;7295315;32;20237;-57
2023/10/12 06:25:55;;;;;;;17.12;9.60;;;14.90;99.90;;;;;;7294777;32;20108;-58
2023/10/12 06:30:18;;;;;;;21.30;10.18;;;15.00;99.90;;;;;;7293039;32;20123;-57
2023/10/12 06:34:23;;;;;;;16.50;9.52;;;14.90;99.90;;;;;;7280858;32;20537;-57
2023/10/12 06:38:47;;;;;;;17.77;10.50;;;14.90;99.90;;;;;;7292943;32;20234;-57
2023/10/12 06:43:57;;;;;;;20.55;10.85;;;14.90;99.90;;;;;;7297424;32;20170;-54
2023/10/12 06:47:27;;;;;;;12.95;9.60;;;15.00;99.90;;;;;;7297239;32;20286;-55
2023/10/12 06:51:29;;;;;;;;;;;14.90;99.90;;;;;;7297369;32;20530;-54
2023/10/12 06:55:31;;;;;;;17.85;9.38;;;15.00;99.90;;;;;;7294170;32;20198;-54
2023/10/12 06:59:35;;;;;;;15.30;9.48;;;15.00;99.90;;;;;;7293473;32;20217;-54
2023/10/12 07:03:36;;;;;;;17.45;9.85;;;15.10;99.90;;;;;;7295756;32;20164;-57
2023/10/12 07:07:41;;;;;;;18.92;11.25;;;15.10;99.90;;;;;;7291940;32;20212;-57
2023/10/12 07:11:43;;;;;;;14.50;9.38;;;15.10;99.90;;;;;;7297246;32;20758;-57
2023/10/12 07:15:45;;;;;;;20.05;10.23;;;15.20;99.90;;;;;;7297532;32;20179;-56
2023/10/12 07:19:49;;;;;;;15.35;9.18;;;15.20;99.90;;;;;;7296823;32;20116;-57
2023/10/12 07:23:56;;;;;;;17.08;9.48;;;15.10;99.90;;;;;;7292137;32;20794;-57
2023/10/12 07:28:01;;;;;;;16.80;9.02;;;15.20;99.90;;;;;;7295142;32;20322;-57
2023/10/12 07:40:56;;;;;;;16.52;9.43;;;15.20;99.90;;;;;;7296780;32;20112;-58
2023/10/12 07:45:05;;;;;;;16.77;9.52;;;15.30;99.90;;;;;;7296004;32;20654;-57
2023/10/12 07:49:25;;;;;;;15.52;8.52;;;15.30;99.90;;;;;;7288237;32;20424;-57
2023/10/12 07:53:29;;;;;;;16.42;9.45;;;15.30;99.90;;;;;;7286466;32;20111;-56
2023/10/12 07:57:31;;;;;;;16.80;9.93;;;15.30;99.90;;;;;;7294338;32;20222;-56
2023/10/12 08:09:51;;;;;;;17.37;9.10;;;15.40;99.90;;;;;;7297042;32;20528;-57
2023/10/12 08:13:55;;;;;;;16.20;8.48;;;15.40;99.90;;;;;;7294815;32;20214;-57
2023/10/12 08:18:12;;;;;;;14.38;9.45;;;15.40;99.90;;;;;;7290927;32;20127;-57
2023/10/12 08:22:25;;;;;;;15.10;9.07;;;15.50;99.90;;;;;;7293465;32;20470;-57
2023/10/12 08:31:00;;;;;;;12.77;8.97;;;15.60;99.90;;;;;;7283086;32;20108;-57
2023/10/12 08:39:08;;;;;;;12.35;8.95;;;15.60;99.90;;;;;;7290743;32;20660;-57
2023/10/12 08:43:17;;;;;;;16.45;9.65;;;15.60;99.90;;;;;;7295254;32;20115;-59
2023/10/12 08:51:35;;;;;;;13.82;8.88;;;15.70;99.90;;;;;;7296107;32;20181;-59
2023/10/12 08:55:38;;;;;;;16.15;9.20;;;15.70;99.90;;;;;;7292728;32;20172;-59
2023/10/12 08:59:44;;;;;;;12.82;8.32;;;15.80;99.90;;;;;;7296024;32;20238;-59
2023/10/12 09:03:46;;;;;;;14.63;8.50;;;15.80;99.90;;;;;;7302949;32;20130;-59
2023/10/12 09:08:03;;;;;;;15.60;8.30;;;15.90;99.90;;;;;;7300529;32;20269;-59
2023/10/12 09:12:11;;;;;;;15.13;9.00;;;15.90;99.90;;;;;;7291752;32;20175;-58
2023/10/12 09:16:15;;;;;;;15.82;8.88;;;16.00;99.90;;;;;;7299492;32;23182;-56
2023/10/12 09:20:28;;;;;;;17.37;9.10;;;16.00;99.90;;;;;;7293541;32;20126;-56
2023/10/12 09:24:36;;;;;;;12.60;8.23;;;16.10;99.90;;;;;;7296250;32;20122;-56
2023/10/12 09:33:10;;;;;;;17.25;8.77;;;16.30;99.90;;;;;;7293087;32;20103;-55
2023/10/12 09:37:16;;;;;;;14.32;7.80;;;16.40;99.90;;;;;;7296832;32;20195;-55
2023/10/12 09:41:25;;;;;;;15.20;7.97;;;16.50;99.90;;;;;;7290109;32;20197;-55
2023/10/12 09:45:34;;;;;;;16.30;8.50;;;16.60;99.90;;;;;;7292949;32;20162;-56
2023/10/12 09:49:43;;;;;;;16.02;8.07;;;16.80;99.90;;;;;;7297285;32;20447;-57
2023/10/12 09:53:57;;;;;;;14.48;8.00;;;16.80;99.90;;;;;;7300337;32;20829;-57
2023/10/12 09:58:14;;;;;;;15.13;7.70;;;16.80;99.90;;;;;;7301874;32;20103;-57
2023/10/12 10:02:28;;;;;;;;;;;16.90;99.90;;;;;;7299271;32;20520;-57
2023/10/12 10:06:37;;;;;;;16.60;7.47;;;17.00;99.90;;;;;;7296819;32;20012;-57
2023/10/12 10:10:39;;;;;;;12.32;6.72;;;17.00;99.90;;;;;;7302209;32;20231;-56
2023/10/12 10:14:44;;;;;;;12.15;7.30;;;17.20;99.90;;;;;;7297058;32;20195;-57
2023/10/12 10:18:56;;;;;;;15.77;7.28;;;17.40;99.90;;;;;;7292872;32;20204;-58
2023/10/12 10:23:01;;;;;;;16.30;6.57;;;17.60;99.90;;;;;;7292553;32;20853;-57
2023/10/12 10:27:14;;;;;;;13.20;6.80;;;17.90;99.90;;;;;;7294631;32;20929;-58
2023/10/12 10:31:25;;;;;;;10.45;6.30;;;18.00;99.90;;;;;;7297498;32;20508;-57
2023/10/12 10:40:17;;;;;;;13.15;6.37;;;18.40;99.90;;;;;;7289317;32;20291;-58
2023/10/12 10:44:23;;;;;;;12.23;7.10;;;18.40;99.90;;;;;;7292464;32;20104;-59
2023/10/12 10:48:27;;;;;;;14.85;6.72;;;18.50;99.90;;;;;;7288299;32;20569;-58
2023/10/12 10:52:49;;;;;;;13.27;7.03;;;18.40;99.90;;;;;;7294620;32;20153;-57
2023/10/12 10:56:53;;;;;;;10.55;6.78;;;18.50;99.90;;;;;;7297108;32;20273;-58
2023/10/12 11:01:03;;;;;;;12.90;7.20;;;18.40;99.90;;;;;;7292718;32;20341;-58
2023/10/12 11:05:10;;;;;;;15.23;7.22;;;18.50;99.90;;;;;;7297503;32;20126;-58
2023/10/12 11:09:15;;;;;;;13.68;7.40;;;18.40;99.90;;;;;;7292299;32;20961;-58
2023/10/12 11:13:18;;;;;;;13.15;7.03;;;18.40;99.90;;;;;;7289692;32;20738;-58
2023/10/12 11:17:21;;;;;;;15.27;7.75;;;18.30;99.90;;;;;;7299823;32;20177;-58
2023/10/12 11:21:25;;;;;;;13.65;7.37;;;18.30;99.90;;;;;;7292897;32;20564;-59
2023/10/12 11:25:27;;;;;;;16.58;7.70;;;18.30;99.90;;;;;;7296683;32;20095;-57
2023/10/12 11:29:45;;;;;;;15.98;7.45;;;18.30;99.90;;;;;;7292062;32;20149;-58
2023/10/12 11:33:49;;;;;;;12.57;7.35;;;18.30;99.90;;;;;;7294406;32;20137;-57
2023/10/12 11:37:53;;;;;;;11.93;7.65;;;18.30;99.90;;;;;;7291993;32;20186;-58
2023/10/12 11:42:06;;;;;;;14.50;7.05;;;18.30;99.90;;;;;;7289122;32;20126;-57
2023/10/12 11:46:08;;;;;;;14.73;7.75;;;18.00;99.90;;;;;;7289945;32;20100;-58
2023/10/12 11:50:13;;;;;;;13.62;8.18;;;18.00;99.90;;;;;;7291219;32;20222;-58
2023/10/12 11:54:19;;;;;;;18.48;9.23;;;18.00;99.90;;;;;;7289539;32;20250;-58
2023/10/12 11:58:23;;;;;;;15.88;8.48;;;17.90;99.90;;;;;;7296877;32;20581;-58
2023/10/12 12:02:26;;;;;;;13.05;8.23;;;17.80;99.90;;;;;;7290180;32;20222;-58
2023/10/12 12:06:32;;;;;;;12.48;8.20;;;17.80;99.90;;;;;;7303576;32;20126;-59
2023/10/12 12:10:53;;;;;;;13.75;8.68;;;17.90;99.90;;;;;;7295299;32;20154;-58
2023/10/12 12:14:55;;;;;;;14.27;8.70;;;18.00;99.90;;;;;;7289213;32;20578;-63
2023/10/12 12:18:58;;;;;;;13.62;8.13;;;18.00;99.90;;;;;;7293689;32;20548;-65
2023/10/12 12:23:04;;;;;;;14.65;8.27;;;18.00;99.90;;;;;;7297412;32;20484;-65
2023/10/12 12:27:05;;;;;;;18.17;9.63;;;18.00;99.90;;;;;;7296675;32;20105;-64
2023/10/12 12:31:10;;;;;;;15.77;8.35;;;18.10;99.90;;;;;;7289264;32;20272;-57
2023/10/12 12:35:15;;;;;;;12.68;7.78;;;18.20;99.90;;;;;;7295606;32;20304;-60
2023/10/12 12:39:21;;;;;;;15.25;8.10;;;18.20;99.90;;;;;;7297963;32;20187;-57
2023/10/12 12:43:23;;;;;;;13.90;8.00;;;18.20;99.90;;;;;;7293922;32;20222;-56
2023/10/12 12:47:25;;;;;;;16.98;8.00;;;18.30;99.90;;;;;;7296220;32;20498;-57
2023/10/12 12:51:27;;;;;;;12.15;7.82;;;18.30;99.90;;;;;;7296441;32;20499;-57
2023/10/12 12:55:32;;;;;;;11.85;7.28;;;18.40;99.90;;;;;;7292185;32;20123;-56
2023/10/12 12:59:33;;;;;;;14.43;7.10;;;18.60;99.90;;;;;;7293263;32;20392;-56
2023/10/12 13:03:35;;;;;;;13.32;6.95;;;18.60;99.90;;;;;;7292751;32;20337;-58
2023/10/12 13:07:38;;;;;;;12.20;7.07;;;18.60;99.90;;;;;;7299956;32;20509;-56
2023/10/12 13:11:39;;;;;;;10.63;7.30;;;18.60;99.90;;;;;;7299021;32;20099;-56
2023/10/12 13:15:42;;;;;;;13.88;6.20;;;18.60;99.90;;;;;;7294073;32;20134;-56
2023/10/12 13:19:44;;;;;;;10.27;5.53;;;18.40;99.90;;;;;;7299813;32;20104;-56
2023/10/12 13:23:46;;;;;;;14.07;5.62;;;18.30;99.90;;;;;;7300061;32;20171;-55
2023/10/12 13:27:51;;;;;;;13.68;6.20;;;18.20;99.90;;;;;;7294997;32;20088;-56
2023/10/12 13:31:54;;;;;;;9.45;5.05;;;18.10;99.90;;;;;;7290171;32;20588;-56
2023/10/12 13:35:56;;;;;;;12.35;5.28;;;18.10;99.90;;;;;;7299610;32;20224;-56
2023/10/12 13:39:58;;;;;;;17.20;5.37;;;18.00;99.90;;;;;;7298132;32;20194;-56
2023/10/12 13:44:05;;;;;;;12.77;4.70;;;18.00;99.90;;;;;;7296740;32;20696;-56
2023/10/12 13:48:10;;;;;;;8.13;4.30;;;18.00;99.90;;;;;;7294832;32;20139;-57
2023/10/12 13:52:12;;;;;;;9.60;5.25;;;17.90;99.90;;;;;;7299316;32;20719;-57
2023/10/12 13:56:14;;;;;;;10.48;5.37;;;17.90;99.90;;;;;;7294841;32;20364;-56
2023/10/12 14:00:17;;;;;;;12.60;6.20;;;18.00;99.90;;;;;;7293322;32;20099;-56
2023/10/12 14:04:28;;;;;;;11.20;4.97;;;18.00;99.90;;;;;;7295216;32;20547;-55
2023/10/12 14:08:32;;;;;;;10.25;5.25;;;18.00;99.90;;;;;;7293340;32;20316;-54
2023/10/12 14:12:33;;;;;;;11.00;5.07;;;18.00;99.90;;;;;;7291599;32;20225;-54
2023/10/12 14:16:35;;;;;;;11.43;5.15;;;18.00;99.90;;;;;;7299001;32;20183;-54
2023/10/12 14:20:39;;;;;;;13.57;5.80;;;18.10;99.90;;;;;;7298206;32;20235;-54
2023/10/12 14:24:42;;;;;;;9.18;5.20;;;18.10;99.90;;;;;;7295589;32;20104;-56
2023/10/12 14:28:47;;;;;;;13.62;5.68;;;18.10;99.90;;;;;;7300667;32;21692;-56
2023/10/12 14:32:49;;;;;;;12.25;5.20;;;18.00;99.90;;;;;;7294888;32;20119;-56
2023/10/12 14:36:51;;;;;;;9.75;5.00;;;17.90;99.90;;;;;;7291384;32;20594;-56
2023/10/12 14:40:56;;;;;;;14.10;6.15;;;17.80;99.90;;;;;;7296519;32;20547;-56
2023/10/12 14:44:58;;;;;;;12.90;5.40;;;17.70;99.90;;;;;;7295960;32;20179;-56
2023/10/12 14:49:01;;;;;;;14.93;5.60;;;17.70;99.90;;;;;;7299502;32;20118;-56
2023/10/12 14:53:04;;;;;;;11.77;5.78;;;17.50;99.90;;;;;;7296803;32;20426;-56
2023/10/12 14:57:05;;;;;;;13.77;5.60;;;17.50;99.90;;;;;;7295976;32;20124;-56
2023/10/12 15:01:14;;;;;;;10.25;5.25;;;17.40;99.90;;;;;;7296451;32;20155;-56
2023/10/12 15:05:16;;;;;;;9.00;4.70;;;17.30;99.90;;;;;;7295563;32;20159;-56
2023/10/12 15:09:24;;;;;;;12.15;5.35;;;17.30;99.90;;;;;;7296894;32;20175;-56
2023/10/12 15:13:26;;;;;;;9.82;5.03;;;17.30;99.90;;;;;;7297847;32;20134;-56
2023/10/12 15:17:28;;;;;;;12.77;5.15;;;17.30;99.90;;;;;;7291045;32;20201;-56
2023/10/12 15:21:29;;;;;;;10.43;5.07;;;17.20;99.90;;;;;;7291551;32;20149;-56
2023/10/12 15:25:35;;;;;;;9.60;5.07;;;17.20;99.90;;;;;;7296567;32;20851;-56
2023/10/12 15:29:40;;;;;;;10.48;4.65;;;17.30;99.90;;;;;;7295015;32;20573;-56
2023/10/12 15:33:41;;;;;;;12.35;4.55;;;17.20;99.90;;;;;;7297645;32;20604;-56
2023/10/12 15:37:46;;;;;;;11.48;4.72;;;17.20;99.90;;;;;;7298734;32;20123;-56
2023/10/12 15:41:48;;;;;;;10.70;5.03;;;17.20;99.90;;;;;;7295877;32;20152;-56
2023/10/12 15:45:50;;;;;;;9.38;4.62;;;17.10;99.90;;;;;;7294477;32;20577;-56
2023/10/12 15:49:52;;;;;;;9.35;4.78;;;17.00;99.90;;;;;;7297901;32;20891;-56
2023/10/12 15:53:55;;;;;;;10.35;4.50;;;17.10;99.90;;;;;;7295487;32;20180;-56
2023/10/12 15:57:57;;;;;;;8.15;3.80;;;17.00;99.90;;;;;;7296811;32;20804;-56
2023/10/12 16:02:00;;;;;;;8.15;4.70;;;17.00;99.90;;;;;;7296846;32;20522;-56
2023/10/12 16:06:01;;;;;;;9.10;4.20;;;17.00;99.90;;;;;;7295388;32;20097;-57
2023/10/12 16:10:06;;;;;;;11.45;4.57;;;17.00;99.90;;;;;;7295277;32;20555;-56
2023/10/12 16:14:08;;;;;;;11.57;4.95;;;17.00;99.90;;;;;;7299652;32;20127;-56
2023/10/12 16:18:11;;;;;;;9.23;4.25;;;16.90;99.90;;;;;;7299517;32;20116;-56
2023/10/12 16:22:13;;;;;;;7.97;5.03;;;16.90;99.90;;;;;;7297955;32;20287;-56
2023/10/12 16:26:15;;;;;;;7.87;4.50;;;16.90;99.90;;;;;;7300675;32;20187;-56
2023/10/12 16:30:18;;;;;;;8.63;5.25;;;16.80;99.90;;;;;;7298776;32;20122;-56
2023/10/12 16:34:20;;;;;;;13.35;5.43;;;16.80;99.90;;;;;;7300119;32;20336;-56
2023/10/12 16:38:22;;;;;;;10.23;6.10;;;16.70;99.90;;;;;;7297183;32;20128;-57
2023/10/12 16:42:24;;;;;;;12.50;5.87;;;16.70;99.90;;;;;;7300387;32;20518;-57
2023/10/12 16:46:26;;;;;;;11.27;6.12;;;16.60;99.90;;;;;;7302369;32;20244;-56
2023/10/12 16:50:28;;;;;;;13.50;6.07;;;16.50;99.90;;;;;;7298015;32;20239;-56
2023/10/12 16:54:30;;;;;;;11.90;6.93;;;16.50;99.90;;;;;;7294887;32;20190;-56
2023/10/12 16:58:32;;;;;;;13.50;7.72;;;16.50;99.90;;;;;;7297681;32;20179;-55
2023/10/12 17:02:36;;;;;;;14.40;7.62;;;16.30;99.90;;;;;;7291744;32;20136;-56
2023/10/12 17:06:38;;;;;;;11.73;6.85;;;16.30;99.90;;;;;;7293721;32;20206;-55
2023/10/12 17:10:40;;;;;;;16.10;6.60;;;16.20;99.90;;;;;;7295186;32;20700;-55
2023/10/12 17:14:43;;;;;;;16.15;7.57;;;16.20;99.90;;;;;;7295452;32;20100;-55
2023/10/12 17:18:45;;;;;;;13.62;6.65;;;16.20;99.90;;;;;;7295358;32;20262;-55
2023/10/12 17:22:47;;;;;;;11.02;6.75;;;16.20;99.90;;;;;;7298335;32;20183;-56
2023/10/12 17:26:51;;;;;;;14.35;7.18;;;16.10;99.90;;;;;;7296729;32;20517;-55
2023/10/12 17:30:53;;;;;;;13.80;7.28;;;16.00;99.90;;;;;;7299382;32;20108;-56
2023/10/12 17:34:55;;;;;;;13.20;7.20;;;16.10;99.90;;;;;;7298534;32;20759;-55
2023/10/12 17:38:58;;;;;;;15.43;7.35;;;16.10;99.90;;;;;;7299643;32;20100;-55
2023/10/12 17:43:00;;;;;;;15.02;7.57;;;16.10;99.90;;;;;;7299619;32;20266;-55
2023/10/12 17:47:02;;;;;;;14.20;7.97;;;16.10;99.90;;;;;;7298465;32;20201;-56
2023/10/12 17:51:13;;;;;;;11.00;7.78;;;16.10;99.90;;;;;;7299350;32;20292;-56
2023/10/12 17:55:18;;;;;;;12.23;7.60;;;16.10;99.90;;;;;;7294386;32;20130;-56
2023/10/12 17:59:19;;;;;;;14.13;8.60;;;16.00;99.90;;;;;;7296309;32;20119;-55
2023/10/12 18:03:21;;;;;;;14.07;8.23;;;16.00;99.90;;;;;;7298124;32;20116;-56
2023/10/12 18:07:24;;;;;;;16.10;9.60;;;16.00;99.90;;;;;;7294489;32;20228;-58
2023/10/12 18:11:27;;;;;;;15.02;9.38;;;16.10;99.90;;;;;;7299767;32;20134;-56
2023/10/12 18:15:29;;;;;;;12.88;8.77;;;16.10;99.90;;;;;;7297711;32;20221;-56
2023/10/12 18:19:31;;;;;;;15.02;9.23;;;16.00;99.90;;;;;;7301143;32;20140;-56
2023/10/12 18:23:33;;;;;;;17.23;9.00;;;16.00;99.90;;;;;;7299694;32;20536;-56
2023/10/12 18:27:34;;;;;;;17.65;9.88;;;16.00;99.90;;;;;;7288400;32;20124;-56
2023/10/12 18:31:36;;;;;;;17.05;10.10;;;16.00;99.90;;;;;;7290124;32;20135;-55
2023/10/12 18:35:44;;;;;;;16.45;10.15;;;16.00;99.90;;;;;;7294920;32;20130;-57
2023/10/12 18:39:46;;;;;;;18.92;10.63;;;16.00;99.90;;;;;;7300696;32;20636;-58
2023/10/12 18:43:48;;;;;;;18.02;10.38;;;16.10;99.90;;;;;;7296194;32;20101;-57
2023/10/12 18:47:51;;;;;;;16.40;10.23;;;16.10;99.90;;;;;;7299028;32;20112;-57
2023/10/12 18:51:53;;;;;;;12.60;9.95;;;16.00;99.90;;;;;;7299798;32;20178;-58
2023/10/12 18:56:02;;;;;;;18.08;11.63;;;16.10;99.90;;;;;;7296395;32;20213;-57
2023/10/12 19:00:15;;;;;;;15.80;10.30;;;16.10;99.90;;;;;;7295238;32;20081;-57
2023/10/12 19:04:19;;;;;;;16.10;11.05;;;16.10;99.90;;;;;;7298126;32;20097;-56
2023/10/12 19:08:22;;;;;;;18.35;10.13;;;16.10;99.90;;;;;;7294579;32;20631;-57
2023/10/12 19:12:24;;;;;;;14.63;10.18;;;16.20;99.90;;;;;;7299313;32;20104;-57
2023/10/12 19:16:26;;;;;;;18.37;11.43;;;16.10;99.90;;;;;;7298630;32;20505;-56
2023/10/12 19:20:29;;;;;;;16.98;11.12;;;16.10;99.90;;;;;;7296528;32;20242;-57
2023/10/12 19:24:32;;;;;;;18.23;11.57;;;16.20;99.90;;;;;;7295345;32;20191;-56
2023/10/12 19:28:34;;;;;;;18.55;11.88;;;16.20;99.90;;;;;;7297388;32;20759;-56
2023/10/12 19:32:36;;;;;;;16.85;12.23;;;16.20;99.90;;;;;;7296865;32;20242;-57
2023/10/12 19:36:38;;;;;;;20.10;12.23;;;16.20;99.90;;;;;;7298914;32;20270;-56
2023/10/12 19:40:41;;;;;;;19.27;11.73;;;16.20;99.90;;;;;;7300319;32;20537;-57
2023/10/12 19:44:43;;;;;;;19.02;11.85;;;16.20;99.90;;;;;;7297328;32;20095;-56
2023/10/12 19:48:45;;;;;;;22.15;11.73;;;16.20;99.90;;;;;;7302124;32;20466;-57
2023/10/12 19:52:50;;;;;;;21.83;12.00;;;16.10;99.90;;;;;;7299591;32;20671;-57
2023/10/12 19:56:53;;;;;;;19.25;13.07;;;16.20;99.90;;;;;;7297613;32;20139;-56
2023/10/12 20:00:56;;;;;;;19.60;13.00;;;16.20;99.90;;;;;;7299486;32;20099;-57
2023/10/12 20:04:58;;;;;;;16.98;11.38;;;16.20;99.90;;;;;;7298469;32;20120;-56
2023/10/12 20:08:59;;;;;;;17.92;13.38;;;16.20;99.90;;;;;;7296560;32;20111;-56
2023/10/12 20:13:05;;;;;;;20.62;12.48;;;16.20;99.90;;;;;;7295061;32;20138;-57
2023/10/12 20:17:09;;;;;;;17.12;11.48;;;16.30;99.90;;;;;;7298971;32;20530;-56
2023/10/12 20:21:12;;;;;;;19.50;12.65;;;16.30;99.90;;;;;;7298848;32;20157;-55
2023/10/12 20:25:14;;;;;;;16.27;12.27;;;16.30;99.90;;;;;;7297733;32;20947;-57
2023/10/12 20:29:16;;;;;;;20.12;13.38;;;16.30;99.90;;;;;;7296610;32;20198;-56
2023/10/12 20:33:20;;;;;;;19.52;11.90;;;16.30;99.90;;;;;;7294797;32;20174;-57
2023/10/12 20:37:22;;;;;;;21.80;13.05;;;16.30;99.90;;;;;;7298820;32;20161;-56
2023/10/12 20:41:25;;;;;;;19.90;13.55;;;16.30;99.90;;;;;;7298590;32;20107;-56
2023/10/12 20:45:26;;;;;;;21.92;12.70;;;16.40;99.90;;;;;;7298273;32;20104;-56
2023/10/12 20:49:32;;;;;;;18.65;13.15;;;16.30;99.90;;;;;;7288613;32;20186;-56
2023/10/12 20:53:34;;;;;;;19.92;13.35;;;16.40;99.90;;;;;;7292511;32;20219;-57
2023/10/12 20:57:38;;;;;;;19.52;12.07;;;16.40;99.90;;;;;;7298782;32;20366;-56
2023/10/12 21:01:46;;;;;;;21.02;12.73;;;16.50;99.90;;;;;;7298160;32;20301;-56
2023/10/12 21:05:49;;;;;;;19.50;11.85;;;16.50;99.90;;;;;;7295779;32;20445;-56
2023/10/12 21:10:12;;;;;;;21.25;13.00;;;16.40;99.90;;;;;;7300394;32;20320;-56
2023/10/12 21:14:21;;;;;;;18.73;12.68;;;16.50;99.90;;;;;;7297563;32;20248;-56
2023/10/12 21:18:35;;;;;;;17.05;12.68;;;16.50;99.90;;;;;;7299944;32;20221;-57
2023/10/12 21:22:37;;;;;;;19.08;13.20;;;16.60;99.90;;;;;;7297096;32;20734;-57
2023/10/12 21:26:39;;;;;;;20.98;11.80;;;16.60;99.90;;;;;;7297259;32;20199;-57
2023/10/12 21:30:41;;;;;;;18.05;13.23;;;16.60;99.90;;;;;;7297715;32;20122;-57
2023/10/12 21:34:45;;;;;;;19.37;13.52;;;16.60;99.90;;;;;;7302323;32;20605;-56
2023/10/12 21:38:51;;;;;;;17.45;12.95;;;16.60;99.90;;;;;;7297056;32;20265;-56
2023/10/12 21:42:52;;;;;;;21.75;13.13;;;16.50;99.90;;;;;;7295918;32;20183;-56
2023/10/12 21:46:54;;;;;;;18.90;12.73;;;16.60;99.90;;;;;;7298445;32;20187;-57
2023/10/12 21:50:58;;;;;;;18.80;12.25;;;16.50;99.90;;;;;;7296607;32;20271;-57
2023/10/12 21:54:59;;;;;;;21.23;11.23;;;16.50;99.90;;;;;;7296982;32;20123;-57
2023/10/12 21:59:02;;;;;;;20.15;12.48;;;16.50;99.90;;;;;;7293761;32;20184;-57
2023/10/12 22:03:07;;;;;;;19.73;12.13;;;16.50;99.90;;;;;;7294922;32;20491;-55
2023/10/12 22:07:12;;;;;;;19.37;12.52;;;16.60;99.90;;;;;;7301569;32;20577;-56
2023/10/12 22:11:14;;;;;;;17.90;12.30;;;16.40;99.90;;;;;;7299572;32;20092;-57
2023/10/12 22:15:23;;;;;;;15.95;11.77;;;16.40;99.90;;;;;;7302402;32;20116;-58
2023/10/12 22:19:25;;;;;;;24.73;13.62;;;16.40;99.90;;;;;;7294841;32;20100;-56
2023/10/12 22:23:27;;;;;;;16.90;12.50;;;16.40;99.90;;;;;;7296558;32;20899;-56
2023/10/12 22:27:29;;;;;;;17.25;12.15;;;16.50;99.90;;;;;;7299917;32;20131;-56
2023/10/12 22:31:35;;;;;;;15.32;11.60;;;16.50;99.90;;;;;;7300385;32;20225;-56